createdAt,value
2023-05-16T00:02:49.572Z,13.60
2023-05-16T00:06:51.578Z,13.50
2023-05-16T00:10:53.297Z,13.40
2023-05-16T00:14:55.648Z,13.30
2023-05-16T00:18:57.935Z,13.20
2023-05-16T00:23:02.046Z,13.10
2023-05-16T00:27:04.201Z,13.00
2023-05-16T00:31:05.936Z,13.00
2023-05-16T00:35:10.659Z,13.00
2023-05-16T00:39:13.412Z,12.90
2023-05-16T00:43:15.193Z,12.90
2023-05-16T00:47:17.022Z,12.90
2023-05-16T00:51:21.376Z,12.80
2023-05-16T00:55:26.511Z,12.70
2023-05-16T00:59:28.315Z,12.80
2023-05-16T01:03:31.362Z,12.70
2023-05-16T01:07:33.380Z,12.70
2023-05-16T01:11:57.881Z,12.70
2023-05-16T01:16:15.445Z,12.70
2023-05-16T01:20:25.148Z,12.60
2023-05-16T01:25:00.955Z,12.60
2023-05-16T01:29:02.625Z,12.60
2023-05-16T01:33:05.055Z,12.50
2023-05-16T01:37:24.624Z,12.40
2023-05-16T01:42:00.427Z,12.30
2023-05-16T01:46:09.715Z,12.30
2023-05-16T01:50:15.759Z,12.20
2023-05-16T01:54:18.595Z,12.20
2023-05-16T01:58:21.642Z,12.10
2023-05-16T02:02:29.507Z,12.10
2023-05-16T02:06:38.336Z,12.00
2023-05-16T02:10:48.402Z,12.00
2023-05-16T02:14:50.083Z,12.00
2023-05-16T02:18:58.531Z,12.10
2023-05-16T02:23:08.007Z,12.20
2023-05-16T02:27:09.877Z,12.30
2023-05-16T02:31:11.714Z,12.40
2023-05-16T02:35:13.471Z,12.60
2023-05-16T02:39:15.251Z,12.70
2023-05-16T02:43:17.021Z,12.80
2023-05-16T02:47:18.905Z,12.90
2023-05-16T02:51:21.323Z,13.00
2023-05-16T02:55:23.029Z,13.00
2023-05-16T02:59:24.815Z,13.10
2023-05-16T03:03:26.729Z,13.20
2023-05-16T03:07:28.438Z,13.20
2023-05-16T03:11:30.221Z,13.20
2023-05-16T03:15:31.985Z,13.10
2023-05-16T03:19:33.874Z,13.20
2023-05-16T03:23:35.790Z,13.20
2023-05-16T03:27:37.510Z,13.20
2023-05-16T03:31:39.428Z,13.30
2023-05-16T03:35:41.385Z,13.30
2023-05-16T03:39:43.249Z,13.40
2023-05-16T03:43:44.991Z,13.40
2023-05-16T03:47:46.894Z,13.50
2023-05-16T03:51:48.945Z,13.60
2023-05-16T03:55:50.725Z,13.70
2023-05-16T03:59:52.527Z,13.90
2023-05-16T04:03:54.769Z,13.90
2023-05-16T04:07:56.596Z,13.90
2023-05-16T04:12:03.571Z,14.00
2023-05-16T04:16:06.169Z,14.00
2023-05-16T04:20:08.703Z,14.10
2023-05-16T04:24:10.583Z,14.00
2023-05-16T04:28:12.674Z,14.00
2023-05-16T04:32:15.433Z,14.00
2023-05-16T04:36:17.198Z,14.00
2023-05-16T04:40:21.746Z,14.10
2023-05-16T04:44:23.603Z,14.10
2023-05-16T04:48:27.707Z,14.10
2023-05-16T04:52:31.713Z,14.10
2023-05-16T04:57:03.586Z,14.10
2023-05-16T05:01:05.495Z,14.00
2023-05-16T05:05:42.333Z,14.00
2023-05-16T05:09:52.997Z,13.90
2023-05-16T05:14:11.004Z,14.00
2023-05-16T05:18:26.126Z,14.00
2023-05-16T05:22:29.668Z,13.70
2023-05-16T05:26:31.502Z,13.80
2023-05-16T05:30:33.451Z,13.90
2023-05-16T05:34:36.516Z,13.90
2023-05-16T05:38:38.497Z,13.70
2023-05-16T05:42:40.264Z,13.50
2023-05-16T05:46:42.075Z,13.50
2023-05-16T05:50:46.701Z,13.30
2023-05-16T05:54:48.640Z,13.30
2023-05-16T05:58:51.259Z,13.20
2023-05-16T06:02:53.221Z,13.40
2023-05-16T06:06:55.426Z,13.40
2023-05-16T06:10:57.160Z,13.40
2023-05-16T06:14:58.874Z,13.60
2023-05-16T06:19:00.807Z,13.30
2023-05-16T06:23:02.609Z,13.00
2023-05-16T06:27:04.643Z,12.90
2023-05-16T06:31:06.427Z,12.90
2023-05-16T06:35:09.539Z,12.90
2023-05-16T06:39:11.635Z,12.90
2023-05-16T06:43:13.511Z,12.80
2023-05-16T06:47:15.799Z,12.60
2023-05-16T06:51:17.694Z,12.40
2023-05-16T06:55:19.489Z,12.40
2023-05-16T06:59:21.376Z,12.50
2023-05-16T07:03:23.315Z,12.40
2023-05-16T07:07:25.383Z,12.40
2023-05-16T07:11:27.181Z,12.40
2023-05-16T07:15:29.323Z,12.50
2023-05-16T07:19:31.548Z,12.60
2023-05-16T07:23:33.418Z,12.80
2023-05-16T07:27:35.193Z,12.70
2023-05-16T07:31:36.977Z,12.60
2023-05-16T07:35:39.445Z,12.60
2023-05-16T07:39:41.333Z,12.50
2023-05-16T07:43:43.078Z,12.40
2023-05-16T07:47:44.876Z,12.50
2023-05-16T07:51:46.732Z,12.50
2023-05-16T07:55:49.276Z,12.40
2023-05-16T07:59:52.503Z,12.40
2023-05-16T08:03:54.643Z,12.40
2023-05-16T08:07:56.597Z,12.40
2023-05-16T08:12:03.382Z,12.30
2023-05-16T08:16:06.273Z,12.30
2023-05-16T08:20:08.617Z,12.30
2023-05-16T08:24:11.416Z,12.30
2023-05-16T08:28:13.170Z,12.30
2023-05-16T08:32:15.038Z,12.30
2023-05-16T08:36:19.690Z,12.40
2023-05-16T08:40:21.491Z,12.50
2023-05-16T08:44:23.313Z,12.50
2023-05-16T08:48:25.603Z,12.60
2023-05-16T08:52:30.642Z,12.70
2023-05-16T08:56:35.413Z,12.70
2023-05-16T09:00:44.364Z,12.70
2023-05-16T09:04:50.615Z,12.80
2023-05-16T09:08:55.963Z,12.70
2023-05-16T09:13:03.431Z,12.70
2023-05-16T09:17:12.455Z,12.80
2023-05-16T09:21:17.968Z,12.80
2023-05-16T09:25:29.177Z,12.80
2023-05-16T09:29:32.634Z,12.80
2023-05-16T09:33:34.891Z,12.80
2023-05-16T09:37:47.881Z,12.90
2023-05-16T09:41:52.678Z,12.90
2023-05-16T09:45:55.605Z,13.10
2023-05-16T09:50:04.654Z,13.30
2023-05-16T09:54:27.393Z,13.40
2023-05-16T09:58:35.143Z,13.50
2023-05-16T10:02:48.397Z,13.40
2023-05-16T10:06:59.389Z,13.60
2023-05-16T10:11:04.603Z,13.60
2023-05-16T10:15:16.337Z,13.70
2023-05-16T10:19:23.372Z,13.70
2023-05-16T10:23:36.752Z,13.80
2023-05-16T10:27:51.433Z,13.80
2023-05-16T10:31:58.491Z,13.80
2023-05-16T10:36:08.297Z,13.90
2023-05-16T10:40:10.570Z,13.70
2023-05-16T10:44:17.987Z,13.80
2023-05-16T10:48:22.368Z,13.70
2023-05-16T10:52:25.655Z,13.50
2023-05-16T10:56:27.661Z,13.40
2023-05-16T11:00:29.414Z,13.50
2023-05-16T11:04:59.664Z,13.80
2023-05-16T11:09:11.045Z,14.20
2023-05-16T11:13:13.077Z,14.80
2023-05-16T11:17:22.031Z,15.30
2023-05-16T11:21:23.964Z,15.30
2023-05-16T11:25:36.163Z,15.10
2023-05-16T11:29:38.172Z,14.90
2023-05-16T11:33:43.213Z,14.70
2023-05-16T11:37:45.478Z,14.50
2023-05-16T11:41:48.814Z,14.60
2023-05-16T11:45:55.299Z,14.80
2023-05-16T11:50:17.593Z,15.50
2023-05-16T11:54:19.716Z,16.20
2023-05-16T11:58:23.013Z,16.40
2023-05-16T12:02:24.949Z,16.50
2023-05-16T12:07:00.851Z,16.80
2023-05-16T12:11:02.943Z,16.50
2023-05-16T12:15:06.933Z,16.20
2023-05-16T12:19:08.959Z,16.10
2023-05-16T12:23:12.578Z,16.10
2023-05-16T12:27:21.330Z,16.00
2023-05-16T12:31:31.574Z,16.10
2023-05-16T12:35:34.476Z,16.10
2023-05-16T12:39:39.351Z,15.80
2023-05-16T12:43:41.168Z,15.90
2023-05-16T12:47:43.113Z,16.00
2023-05-16T12:51:55.573Z,16.10
2023-05-16T12:55:57.990Z,15.90
2023-05-16T12:59:59.733Z,15.80
2023-05-16T13:04:01.897Z,15.60
2023-05-16T13:08:04.320Z,15.50
2023-05-16T13:12:06.678Z,15.40
2023-05-16T13:16:10.475Z,15.20
2023-05-16T13:20:15.198Z,15.10
2023-05-16T13:24:17.288Z,14.90
2023-05-16T13:28:21.633Z,14.80
2023-05-16T13:32:23.470Z,14.90
2023-05-16T13:36:33.176Z,15.20
2023-05-16T13:40:42.501Z,15.30
2023-05-16T13:44:44.979Z,15.50
2023-05-16T13:48:46.970Z,15.90
2023-05-16T13:52:48.967Z,16.00
2023-05-16T13:56:50.941Z,15.90
2023-05-16T14:00:53.881Z,15.80
2023-05-16T14:04:56.267Z,15.50
2023-05-16T14:09:04.018Z,15.30
2023-05-16T14:13:06.151Z,15.10
2023-05-16T14:17:08.033Z,15.10
2023-05-16T14:21:13.228Z,15.00
2023-05-16T14:25:15.091Z,15.20
2023-05-16T14:29:19.457Z,15.20
2023-05-16T14:33:23.998Z,14.90
2023-05-16T14:37:39.753Z,14.60
2023-05-16T14:41:41.565Z,14.40
2023-05-16T14:45:43.488Z,14.20
2023-05-16T14:49:47.946Z,14.00
2023-05-16T14:53:49.960Z,13.90
2023-05-16T14:57:58.959Z,13.90
2023-05-16T15:02:01.754Z,13.90
2023-05-16T15:06:07.743Z,13.80
2023-05-16T15:10:09.950Z,13.90
2023-05-16T15:14:21.295Z,13.90
2023-05-16T15:18:23.103Z,13.90
2023-05-16T15:22:24.892Z,14.00
2023-05-16T15:26:26.857Z,14.10
2023-05-16T15:30:28.624Z,14.00
2023-05-16T15:34:30.452Z,14.20
2023-05-16T15:38:46.650Z,14.30
2023-05-16T15:42:51.248Z,14.30
2023-05-16T15:47:05.849Z,14.50
2023-05-16T15:51:07.652Z,14.80
2023-05-16T15:55:15.720Z,15.20
2023-05-16T15:59:17.632Z,15.70
2023-05-16T16:03:25.399Z,15.60
2023-05-16T16:07:27.472Z,15.50
2023-05-16T16:11:31.965Z,15.60
2023-05-16T16:15:49.486Z,15.60
2023-05-16T16:19:51.682Z,15.80
2023-05-16T16:24:00.950Z,16.10
2023-05-16T16:28:10.046Z,16.20
2023-05-16T16:33:18.526Z,16.30
2023-05-16T16:43:24.332Z,16.20
2023-05-16T16:47:20.265Z,16.20
2023-05-16T16:51:34.578Z,16.40
2023-05-16T16:56:00.634Z,16.30
2023-05-16T17:05:04.740Z,16.40
2023-05-16T17:19:34.734Z,15.70
2023-05-16T17:23:51.768Z,15.60
2023-05-16T17:33:09.556Z,15.40
2023-05-16T17:37:58.479Z,15.40
2023-05-16T18:07:23.105Z,15.20
2023-05-16T18:45:59.074Z,14.40
2023-05-16T20:55:26.762Z,10.90
2023-05-16T20:59:28.992Z,10.80
2023-05-16T21:03:43.308Z,10.80
2023-05-16T21:09:33.944Z,10.70
2023-05-16T21:13:07.917Z,10.60
2023-05-16T21:17:12.746Z,10.50
2023-05-16T21:21:18.112Z,10.40
2023-05-16T21:25:19.978Z,10.40
2023-05-16T21:29:28.474Z,10.30
2023-05-16T21:33:38.099Z,10.30
2023-05-16T21:37:42.760Z,10.20
2023-05-16T21:41:47.037Z,10.10
2023-05-16T21:45:50.537Z,10.10
2023-05-16T21:49:52.434Z,10.00
2023-05-16T21:53:55.512Z,9.90
2023-05-16T21:58:08.637Z,9.90
2023-05-16T22:02:23.255Z,9.90
2023-05-16T22:06:27.786Z,9.80
2023-05-16T22:10:32.765Z,9.80
2023-05-16T22:14:37.639Z,9.80
2023-05-16T22:18:39.505Z,9.70
2023-05-16T22:22:44.814Z,9.70
2023-05-16T22:26:58.854Z,9.70
2023-05-16T22:31:00.725Z,9.60
2023-05-16T22:35:02.698Z,9.60
2023-05-16T22:39:08.409Z,9.50
2023-05-16T22:43:10.512Z,9.50
2023-05-16T22:47:12.285Z,9.40
2023-05-16T22:51:14.005Z,9.30
2023-05-16T22:55:15.892Z,9.20
2023-05-16T22:59:17.729Z,9.20
2023-05-16T23:03:19.663Z,9.20
2023-05-16T23:07:21.409Z,9.10
2023-05-16T23:11:23.212Z,8.90
2023-05-16T23:15:24.972Z,8.90
2023-05-16T23:19:26.987Z,8.80
2023-05-16T23:23:32.075Z,8.70
2023-05-16T23:27:33.921Z,8.60
2023-05-16T23:31:35.855Z,8.50
2023-05-16T23:35:37.652Z,8.50
2023-05-16T23:39:39.536Z,8.40
2023-05-16T23:43:41.448Z,8.40
2023-05-16T23:47:43.495Z,8.30
2023-05-16T23:55:54.860Z,8.30
2023-05-16T23:59:57.017Z,8.20
